Terminal Aerodrome Forecast
Issued by NWS Binghamton, NY

Home | Current Version | Previous Version | Text Only | Print | Product List | Glossary On
Versions: 1 2 3 4 5 6 7 8 9 10 11 12 13 14 15 16 17 18 19 20 21 22
359
FTUS41 KBGM 290529
TAFAVP
TAF
KAVP 290529Z 2906/3006 16004KT P6SM BKN080
      TEMPO 2906/2910 -SHRA OVC035
     FM291000 22005KT P6SM -SHRA OVC035
     FM291400 26010KT P6SM OVC040
     FM300300 VRB03KT P6SM BKN200=

USA.gov is the U.S. government's official web portal to all federal, state and local government web resources and services.